sensor_id;sensor_type;location;lat;lon;timestamp;P1;durP1;ratioP1;P2;durP2;ratioP2
13171;SDS011;6651;53.200;10.432;2023-03-01T00:02:25;4.60;;;2.90;;
13171;SDS011;6651;53.200;10.432;2023-03-01T00:04:51;3.97;;;2.65;;
13171;SDS011;6651;53.200;10.432;2023-03-01T00:07:17;3.65;;;2.60;;
13171;SDS011;6651;53.200;10.432;2023-03-01T00:09:43;4.07;;;2.50;;
13171;SDS011;6651;53.200;10.432;2023-03-01T00:12:10;2.67;;;2.35;;
13171;SDS011;6651;53.200;10.432;2023-03-01T00:14:36;3.70;;;2.70;;
13171;SDS011;6651;53.200;10.432;2023-03-01T00:17:02;3.35;;;2.50;;
13171;SDS011;6651;53.200;10.432;2023-03-01T00:19:28;4.30;;;2.63;;
13171;SDS011;6651;53.200;10.432;2023-03-01T00:21:54;4.22;;;2.60;;
13171;SDS011;6651;53.200;10.432;2023-03-01T00:24:20;2.90;;;2.30;;
13171;SDS011;6651;53.200;10.432;2023-03-01T00:26:46;2.92;;;2.25;;
13171;SDS011;6651;53.200;10.432;2023-03-01T00:29:12;4.43;;;2.50;;
13171;SDS011;6651;53.200;10.432;2023-03-01T00:31:38;3.25;;;2.20;;
13171;SDS011;6651;53.200;10.432;2023-03-01T00:34:04;2.40;;;2.20;;
13171;SDS011;6651;53.200;10.432;2023-03-01T00:36:32;4.35;;;2.45;;
13171;SDS011;6651;53.200;10.432;2023-03-01T00:38:58;3.67;;;2.38;;
13171;SDS011;6651;53.200;10.432;2023-03-01T00:41:25;2.90;;;2.10;;
13171;SDS011;6651;53.200;10.432;2023-03-01T00:43:54;2.30;;;2.10;;
13171;SDS011;6651;53.200;10.432;2023-03-01T00:46:21;2.20;;;2.00;;
13171;SDS011;6651;53.200;10.432;2023-03-01T00:48:47;5.07;;;2.63;;
13171;SDS011;6651;53.200;10.432;2023-03-01T00:51:14;3.95;;;2.70;;
13171;SDS011;6651;53.200;10.432;2023-03-01T00:53:41;3.17;;;2.33;;
13171;SDS011;6651;53.200;10.432;2023-03-01T00:56:07;5.07;;;2.90;;
13171;SDS011;6651;53.200;10.432;2023-03-01T00:58:34;3.47;;;2.10;;
13171;SDS011;6651;53.200;10.432;2023-03-01T01:01:00;4.25;;;2.40;;
13171;SDS011;6651;53.200;10.432;2023-03-01T01:03:26;3.63;;;1.95;;
13171;SDS011;6651;53.200;10.432;2023-03-01T01:05:53;3.88;;;2.42;;
13171;SDS011;6651;53.200;10.432;2023-03-01T01:08:19;2.80;;;2.10;;
13171;SDS011;6651;53.200;10.432;2023-03-01T01:10:46;2.13;;;1.95;;
13171;SDS011;6651;53.200;10.432;2023-03-01T01:13:12;2.47;;;1.90;;
13171;SDS011;6651;53.200;10.432;2023-03-01T01:15:39;2.28;;;2.05;;
13171;SDS011;6651;53.200;10.432;2023-03-01T01:18:05;2.75;;;2.00;;
13171;SDS011;6651;53.200;10.432;2023-03-01T01:20:32;3.13;;;2.30;;
13171;SDS011;6651;53.200;10.432;2023-03-01T01:22:58;2.65;;;2.10;;
13171;SDS011;6651;53.200;10.432;2023-03-01T01:25:24;3.55;;;2.30;;
13171;SDS011;6651;53.200;10.432;2023-03-01T01:27:50;3.05;;;2.30;;
13171;SDS011;6651;53.200;10.432;2023-03-01T01:30:16;2.95;;;2.17;;
13171;SDS011;6651;53.200;10.432;2023-03-01T01:32:42;3.05;;;2.15;;
13171;SDS011;6651;53.200;10.432;2023-03-01T01:35:08;2.90;;;2.13;;
13171;SDS011;6651;53.200;10.432;2023-03-01T01:37:34;2.47;;;2.20;;
13171;SDS011;6651;53.200;10.432;2023-03-01T01:40:01;2.83;;;2.00;;
13171;SDS011;6651;53.200;10.432;2023-03-01T01:42:29;3.42;;;2.10;;
13171;SDS011;6651;53.200;10.432;2023-03-01T01:45:38;3.00;;;2.20;;
13171;SDS011;6651;53.200;10.432;2023-03-01T01:47:44;2.58;;;1.95;;
13171;SDS011;6651;53.200;10.432;2023-03-01T01:50:14;3.13;;;2.30;;
13171;SDS011;6651;53.200;10.432;2023-03-01T01:52:42;4.38;;;2.22;;
13171;SDS011;6651;53.200;10.432;2023-03-01T01:55:08;2.97;;;2.15;;
13171;SDS011;6651;53.200;10.432;2023-03-01T01:57:38;2.60;;;2.15;;
13171;SDS011;6651;53.200;10.432;2023-03-01T02:00:07;2.42;;;2.20;;
13171;SDS011;6651;53.200;10.432;2023-03-01T02:02:34;2.60;;;2.20;;
13171;SDS011;6651;53.200;10.432;2023-03-01T02:05:06;5.65;;;2.33;;
13171;SDS011;6651;53.200;10.432;2023-03-01T02:07:35;3.70;;;2.30;;
13171;SDS011;6651;53.200;10.432;2023-03-01T02:10:02;2.75;;;2.00;;
13171;SDS011;6651;53.200;10.432;2023-03-01T02:12:28;3.45;;;2.20;;
13171;SDS011;6651;53.200;10.432;2023-03-01T02:14:55;2.95;;;2.20;;
13171;SDS011;6651;53.200;10.432;2023-03-01T02:17:21;3.10;;;2.28;;
13171;SDS011;6651;53.200;10.432;2023-03-01T02:19:58;4.38;;;2.25;;
13171;SDS011;6651;53.200;10.432;2023-03-01T02:22:27;2.75;;;2.30;;
13171;SDS011;6651;53.200;10.432;2023-03-01T02:30:09;3.25;;;2.50;;
13171;SDS011;6651;53.200;10.432;2023-03-01T02:32:37;3.58;;;2.20;;
13171;SDS011;6651;53.200;10.432;2023-03-01T02:35:06;3.15;;;2.53;;
13171;SDS011;6651;53.200;10.432;2023-03-01T02:37:33;4.60;;;2.50;;
13171;SDS011;6651;53.200;10.432;2023-03-01T02:40:02;2.88;;;2.22;;
13171;SDS011;6651;53.200;10.432;2023-03-01T02:42:33;2.25;;;2.05;;
13171;SDS011;6651;53.200;10.432;2023-03-01T02:45:01;3.80;;;2.17;;
13171;SDS011;6651;53.200;10.432;2023-03-01T02:47:27;4.38;;;2.60;;
13171;SDS011;6651;53.200;10.432;2023-03-01T02:49:53;3.55;;;2.58;;
13171;SDS011;6651;53.200;10.432;2023-03-01T02:55:06;3.35;;;2.20;;
13171;SDS011;6651;53.200;10.432;2023-03-01T02:57:33;4.00;;;2.65;;
13171;SDS011;6651;53.200;10.432;2023-03-01T03:00:01;2.55;;;2.35;;
13171;SDS011;6651;53.200;10.432;2023-03-01T03:02:31;3.45;;;2.42;;
13171;SDS011;6651;53.200;10.432;2023-03-01T03:05:05;2.78;;;2.30;;
13171;SDS011;6651;53.200;10.432;2023-03-01T03:07:33;2.65;;;2.40;;
13171;SDS011;6651;53.200;10.432;2023-03-01T03:09:59;3.47;;;2.28;;
13171;SDS011;6651;53.200;10.432;2023-03-01T03:12:25;3.67;;;2.33;;
13171;SDS011;6651;53.200;10.432;2023-03-01T03:14:51;2.50;;;2.17;;
13171;SDS011;6651;53.200;10.432;2023-03-01T03:17:17;2.70;;;2.28;;
13171;SDS011;6651;53.200;10.432;2023-03-01T03:19:43;3.92;;;2.35;;
13171;SDS011;6651;53.200;10.432;2023-03-01T03:22:11;2.53;;;2.10;;
13171;SDS011;6651;53.200;10.432;2023-03-01T03:24:37;3.90;;;2.40;;
13171;SDS011;6651;53.200;10.432;2023-03-01T03:27:06;3.30;;;2.50;;
13171;SDS011;6651;53.200;10.432;2023-03-01T03:29:32;2.50;;;2.20;;
13171;SDS011;6651;53.200;10.432;2023-03-01T03:31:58;3.70;;;2.13;;
13171;SDS011;6651;53.200;10.432;2023-03-01T03:34:24;3.60;;;2.22;;
13171;SDS011;6651;53.200;10.432;2023-03-01T03:36:54;2.55;;;2.22;;
13171;SDS011;6651;53.200;10.432;2023-03-01T03:39:24;3.53;;;2.38;;
13171;SDS011;6651;53.200;10.432;2023-03-01T03:41:50;2.63;;;2.30;;
13171;SDS011;6651;53.200;10.432;2023-03-01T03:44:16;2.88;;;2.13;;
13171;SDS011;6651;53.200;10.432;2023-03-01T03:46:42;3.63;;;2.10;;
13171;SDS011;6651;53.200;10.432;2023-03-01T03:49:08;2.70;;;2.33;;
13171;SDS011;6651;53.200;10.432;2023-03-01T03:51:34;2.92;;;2.17;;
13171;SDS011;6651;53.200;10.432;2023-03-01T03:54:00;3.60;;;2.30;;
13171;SDS011;6651;53.200;10.432;2023-03-01T03:56:26;3.42;;;2.33;;
13171;SDS011;6651;53.200;10.432;2023-03-01T03:58:52;2.10;;;1.90;;
13171;SDS011;6651;53.200;10.432;2023-03-01T04:01:18;3.13;;;2.30;;
13171;SDS011;6651;53.200;10.432;2023-03-01T04:03:44;2.88;;;2.25;;
13171;SDS011;6651;53.200;10.432;2023-03-01T04:06:12;3.17;;;2.17;;
13171;SDS011;6651;53.200;10.432;2023-03-01T04:08:38;4.28;;;2.53;;
13171;SDS011;6651;53.200;10.432;2023-03-01T04:11:05;3.03;;;2.30;;
13171;SDS011;6651;53.200;10.432;2023-03-01T04:13:50;4.22;;;2.58;;
13171;SDS011;6651;53.200;10.432;2023-03-01T04:16:16;3.33;;;2.30;;
13171;SDS011;6651;53.200;10.432;2023-03-01T04:18:42;3.25;;;2.17;;
13171;SDS011;6651;53.200;10.432;2023-03-01T04:21:09;3.67;;;2.30;;
13171;SDS011;6651;53.200;10.432;2023-03-01T04:23:36;2.88;;;2.28;;
13171;SDS011;6651;53.200;10.432;2023-03-01T04:26:02;3.85;;;2.35;;
13171;SDS011;6651;53.200;10.432;2023-03-01T04:30:55;2.42;;;2.05;;
13171;SDS011;6651;53.200;10.432;2023-03-01T04:33:22;3.42;;;2.40;;
13171;SDS011;6651;53.200;10.432;2023-03-01T04:35:48;3.30;;;2.25;;
13171;SDS011;6651;53.200;10.432;2023-03-01T04:38:15;2.90;;;2.30;;
13171;SDS011;6651;53.200;10.432;2023-03-01T04:40:41;3.15;;;2.40;;
13171;SDS011;6651;53.200;10.432;2023-03-01T04:43:08;4.00;;;2.42;;
13171;SDS011;6651;53.200;10.432;2023-03-01T04:45:34;3.28;;;2.30;;
13171;SDS011;6651;53.200;10.432;2023-03-01T04:48:00;3.55;;;2.22;;
13171;SDS011;6651;53.200;10.432;2023-03-01T04:50:26;3.22;;;2.42;;
13171;SDS011;6651;53.200;10.432;2023-03-01T04:52:53;4.13;;;2.30;;
13171;SDS011;6651;53.200;10.432;2023-03-01T04:55:21;2.67;;;2.20;;
13171;SDS011;6651;53.200;10.432;2023-03-01T04:57:47;2.83;;;2.28;;
13171;SDS011;6651;53.200;10.432;2023-03-01T05:00:13;3.08;;;2.30;;
13171;SDS011;6651;53.200;10.432;2023-03-01T05:02:53;3.35;;;2.05;;
13171;SDS011;6651;53.200;10.432;2023-03-01T05:05:20;2.60;;;2.13;;
13171;SDS011;6651;53.200;10.432;2023-03-01T05:07:46;2.70;;;2.17;;
13171;SDS011;6651;53.200;10.432;2023-03-01T05:10:12;3.00;;;2.35;;
13171;SDS011;6651;53.200;10.432;2023-03-01T05:12:38;3.60;;;2.30;;
13171;SDS011;6651;53.200;10.432;2023-03-01T05:15:05;3.25;;;2.47;;
13171;SDS011;6651;53.200;10.432;2023-03-01T05:17:32;3.58;;;2.60;;
13171;SDS011;6651;53.200;10.432;2023-03-01T05:19:59;3.65;;;2.53;;
13171;SDS011;6651;53.200;10.432;2023-03-01T05:22:25;3.08;;;2.40;;
13171;SDS011;6651;53.200;10.432;2023-03-01T05:24:52;2.55;;;2.25;;
13171;SDS011;6651;53.200;10.432;2023-03-01T05:27:19;2.60;;;2.20;;
13171;SDS011;6651;53.200;10.432;2023-03-01T05:29:47;3.35;;;2.40;;
13171;SDS011;6651;53.200;10.432;2023-03-01T05:32:13;3.63;;;2.30;;
13171;SDS011;6651;53.200;10.432;2023-03-01T05:34:40;2.72;;;2.13;;
13171;SDS011;6651;53.200;10.432;2023-03-01T05:37:06;2.70;;;2.20;;
13171;SDS011;6651;53.200;10.432;2023-03-01T05:39:36;2.72;;;2.20;;
13171;SDS011;6651;53.200;10.432;2023-03-01T05:42:02;3.65;;;2.47;;
13171;SDS011;6651;53.200;10.432;2023-03-01T05:44:28;3.58;;;2.45;;
13171;SDS011;6651;53.200;10.432;2023-03-01T05:46:55;3.20;;;2.47;;
13171;SDS011;6651;53.200;10.432;2023-03-01T05:49:21;2.40;;;2.20;;
13171;SDS011;6651;53.200;10.432;2023-03-01T05:51:49;2.97;;;2.17;;
13171;SDS011;6651;53.200;10.432;2023-03-01T05:54:15;3.53;;;2.97;;
13171;SDS011;6651;53.200;10.432;2023-03-01T05:56:41;2.80;;;2.30;;
13171;SDS011;6651;53.200;10.432;2023-03-01T05:59:07;2.38;;;2.10;;
13171;SDS011;6651;53.200;10.432;2023-03-01T06:01:34;3.45;;;2.85;;
13171;SDS011;6651;53.200;10.432;2023-03-01T06:04:01;3.17;;;2.50;;
13171;SDS011;6651;53.200;10.432;2023-03-01T06:06:27;3.75;;;2.67;;
13171;SDS011;6651;53.200;10.432;2023-03-01T06:08:54;3.92;;;2.70;;
13171;SDS011;6651;53.200;10.432;2023-03-01T06:11:20;3.47;;;2.63;;
13171;SDS011;6651;53.200;10.432;2023-03-01T06:13:47;4.05;;;2.70;;
13171;SDS011;6651;53.200;10.432;2023-03-01T06:16:13;5.10;;;2.85;;
13171;SDS011;6651;53.200;10.432;2023-03-01T06:18:39;4.20;;;2.50;;
13171;SDS011;6651;53.200;10.432;2023-03-01T06:21:06;4.03;;;2.67;;
13171;SDS011;6651;53.200;10.432;2023-03-01T06:23:32;4.30;;;2.67;;
13171;SDS011;6651;53.200;10.432;2023-03-01T06:25:59;6.68;;;3.00;;
13171;SDS011;6651;53.200;10.432;2023-03-01T06:28:26;4.72;;;2.83;;
13171;SDS011;6651;53.200;10.432;2023-03-01T06:30:52;4.68;;;2.97;;
13171;SDS011;6651;53.200;10.432;2023-03-01T06:33:18;4.30;;;2.85;;
13171;SDS011;6651;53.200;10.432;2023-03-01T06:35:49;4.22;;;2.75;;
13171;SDS011;6651;53.200;10.432;2023-03-01T06:38:15;4.68;;;2.80;;
13171;SDS011;6651;53.200;10.432;2023-03-01T06:40:43;4.80;;;3.08;;
13171;SDS011;6651;53.200;10.432;2023-03-01T06:43:09;3.85;;;2.80;;
13171;SDS011;6651;53.200;10.432;2023-03-01T06:45:36;5.53;;;3.10;;
13171;SDS011;6651;53.200;10.432;2023-03-01T06:48:03;4.65;;;2.95;;
13171;SDS011;6651;53.200;10.432;2023-03-01T06:50:29;5.22;;;3.10;;
13171;SDS011;6651;53.200;10.432;2023-03-01T06:52:55;4.80;;;3.17;;
13171;SDS011;6651;53.200;10.432;2023-03-01T06:55:22;4.40;;;3.20;;
13171;SDS011;6651;53.200;10.432;2023-03-01T06:57:48;6.07;;;3.65;;
13171;SDS011;6651;53.200;10.432;2023-03-01T07:00:14;7.13;;;3.88;;
13171;SDS011;6651;53.200;10.432;2023-03-01T07:02:40;4.55;;;3.30;;
13171;SDS011;6651;53.200;10.432;2023-03-01T07:05:06;5.78;;;3.97;;
13171;SDS011;6651;53.200;10.432;2023-03-01T07:07:32;6.10;;;3.90;;
13171;SDS011;6651;53.200;10.432;2023-03-01T07:09:58;5.45;;;3.72;;
13171;SDS011;6651;53.200;10.432;2023-03-01T07:12:24;4.20;;;3.47;;
13171;SDS011;6651;53.200;10.432;2023-03-01T07:14:50;6.32;;;3.92;;
13171;SDS011;6651;53.200;10.432;2023-03-01T07:17:16;6.85;;;4.10;;
13171;SDS011;6651;53.200;10.432;2023-03-01T07:19:43;6.15;;;4.18;;
13171;SDS011;6651;53.200;10.432;2023-03-01T07:22:10;8.15;;;4.38;;
13171;SDS011;6651;53.200;10.432;2023-03-01T07:24:36;7.28;;;4.50;;
13171;SDS011;6651;53.200;10.432;2023-03-01T07:27:02;6.47;;;4.30;;
13171;SDS011;6651;53.200;10.432;2023-03-01T07:29:28;5.68;;;4.63;;
13171;SDS011;6651;53.200;10.432;2023-03-01T07:31:54;5.65;;;4.10;;
13171;SDS011;6651;53.200;10.432;2023-03-01T07:34:20;5.15;;;4.07;;
13171;SDS011;6651;53.200;10.432;2023-03-01T07:36:46;6.18;;;4.10;;
13171;SDS011;6651;53.200;10.432;2023-03-01T07:39:12;6.68;;;4.18;;
13171;SDS011;6651;53.200;10.432;2023-03-01T07:41:38;7.15;;;3.83;;
13171;SDS011;6651;53.200;10.432;2023-03-01T07:44:04;6.45;;;3.80;;
13171;SDS011;6651;53.200;10.432;2023-03-01T07:46:31;5.57;;;3.70;;
13171;SDS011;6651;53.200;10.432;2023-03-01T07:48:57;6.70;;;3.88;;
13171;SDS011;6651;53.200;10.432;2023-03-01T07:51:23;4.88;;;3.35;;
13171;SDS011;6651;53.200;10.432;2023-03-01T07:53:49;6.82;;;3.90;;
13171;SDS011;6651;53.200;10.432;2023-03-01T07:56:16;6.90;;;4.15;;
13171;SDS011;6651;53.200;10.432;2023-03-01T07:58:43;8.48;;;5.68;;
13171;SDS011;6651;53.200;10.432;2023-03-01T08:01:10;7.13;;;5.18;;
13171;SDS011;6651;53.200;10.432;2023-03-01T08:03:37;6.63;;;4.30;;
13171;SDS011;6651;53.200;10.432;2023-03-01T08:06:03;5.40;;;4.07;;
13171;SDS011;6651;53.200;10.432;2023-03-01T08:08:30;6.25;;;4.40;;
13171;SDS011;6651;53.200;10.432;2023-03-01T08:10:56;5.07;;;3.50;;
13171;SDS011;6651;53.200;10.432;2023-03-01T08:13:22;4.95;;;3.70;;
13171;SDS011;6651;53.200;10.432;2023-03-01T08:15:49;5.65;;;3.70;;
13171;SDS011;6651;53.200;10.432;2023-03-01T08:18:18;5.43;;;3.70;;
13171;SDS011;6651;53.200;10.432;2023-03-01T08:20:44;5.68;;;3.45;;
13171;SDS011;6651;53.200;10.432;2023-03-01T08:23:10;5.80;;;3.25;;
13171;SDS011;6651;53.200;10.432;2023-03-01T08:25:37;5.43;;;3.63;;
13171;SDS011;6651;53.200;10.432;2023-03-01T08:28:04;4.88;;;3.55;;
13171;SDS011;6651;53.200;10.432;2023-03-01T08:30:30;4.68;;;3.40;;
13171;SDS011;6651;53.200;10.432;2023-03-01T08:32:56;5.15;;;3.47;;
13171;SDS011;6651;53.200;10.432;2023-03-01T08:35:22;6.10;;;3.38;;
13171;SDS011;6651;53.200;10.432;2023-03-01T08:37:48;4.20;;;3.17;;
13171;SDS011;6651;53.200;10.432;2023-03-01T08:40:14;5.30;;;3.40;;
13171;SDS011;6651;53.200;10.432;2023-03-01T08:42:40;4.88;;;3.40;;
13171;SDS011;6651;53.200;10.432;2023-03-01T08:45:10;6.40;;;3.67;;
13171;SDS011;6651;53.200;10.432;2023-03-01T08:47:36;5.03;;;3.88;;
13171;SDS011;6651;53.200;10.432;2023-03-01T08:50:03;6.50;;;3.95;;
13171;SDS011;6651;53.200;10.432;2023-03-01T08:52:29;4.65;;;3.40;;
13171;SDS011;6651;53.200;10.432;2023-03-01T08:54:55;3.78;;;2.90;;
13171;SDS011;6651;53.200;10.432;2023-03-01T08:57:21;3.38;;;2.95;;
13171;SDS011;6651;53.200;10.432;2023-03-01T08:59:47;5.82;;;3.38;;
13171;SDS011;6651;53.200;10.432;2023-03-01T09:02:14;5.05;;;3.10;;
13171;SDS011;6651;53.200;10.432;2023-03-01T09:04:41;4.97;;;3.35;;
13171;SDS011;6651;53.200;10.432;2023-03-01T09:07:07;5.18;;;3.50;;
13171;SDS011;6651;53.200;10.432;2023-03-01T09:09:33;5.65;;;3.53;;
13171;SDS011;6651;53.200;10.432;2023-03-01T09:12:00;5.13;;;3.42;;
13171;SDS011;6651;53.200;10.432;2023-03-01T09:14:26;6.97;;;3.90;;
13171;SDS011;6651;53.200;10.432;2023-03-01T09:16:52;6.00;;;3.53;;
13171;SDS011;6651;53.200;10.432;2023-03-01T09:19:18;5.63;;;4.00;;
13171;SDS011;6651;53.200;10.432;2023-03-01T09:21:44;5.00;;;3.60;;
13171;SDS011;6651;53.200;10.432;2023-03-01T09:24:17;5.57;;;4.00;;
13171;SDS011;6651;53.200;10.432;2023-03-01T09:26:43;5.43;;;3.53;;
13171;SDS011;6651;53.200;10.432;2023-03-01T09:29:11;5.18;;;3.38;;
13171;SDS011;6651;53.200;10.432;2023-03-01T09:31:38;5.25;;;3.42;;
13171;SDS011;6651;53.200;10.432;2023-03-01T09:34:04;5.78;;;3.67;;
13171;SDS011;6651;53.200;10.432;2023-03-01T09:36:31;6.88;;;4.60;;
13171;SDS011;6651;53.200;10.432;2023-03-01T09:38:58;6.22;;;4.45;;
13171;SDS011;6651;53.200;10.432;2023-03-01T09:44:16;8.95;;;4.93;;
13171;SDS011;6651;53.200;10.432;2023-03-01T09:46:45;7.85;;;5.15;;
13171;SDS011;6651;53.200;10.432;2023-03-01T09:49:19;9.18;;;4.68;;
13171;SDS011;6651;53.200;10.432;2023-03-01T09:51:59;8.50;;;5.53;;
13171;SDS011;6651;53.200;10.432;2023-03-01T09:54:26;7.03;;;4.60;;
13171;SDS011;6651;53.200;10.432;2023-03-01T10:02:32;6.45;;;5.20;;
13171;SDS011;6651;53.200;10.432;2023-03-01T10:09:53;12.38;;;5.80;;
13171;SDS011;6651;53.200;10.432;2023-03-01T10:12:20;8.88;;;5.57;;
13171;SDS011;6651;53.200;10.432;2023-03-01T10:17:26;9.48;;;6.57;;
13171;SDS011;6651;53.200;10.432;2023-03-01T10:19:53;9.00;;;7.07;;
13171;SDS011;6651;53.200;10.432;2023-03-01T10:22:22;10.35;;;6.80;;
13171;SDS011;6651;53.200;10.432;2023-03-01T10:24:50;8.88;;;6.68;;
13171;SDS011;6651;53.200;10.432;2023-03-01T10:32:28;10.30;;;6.75;;
13171;SDS011;6651;53.200;10.432;2023-03-01T10:34:54;11.25;;;7.25;;
13171;SDS011;6651;53.200;10.432;2023-03-01T10:37:22;10.77;;;6.82;;
13171;SDS011;6651;53.200;10.432;2023-03-01T10:42:31;9.38;;;6.30;;
13171;SDS011;6651;53.200;10.432;2023-03-01T10:45:11;8.38;;;6.53;;
13171;SDS011;6651;53.200;10.432;2023-03-01T10:47:40;9.95;;;6.75;;
13171;SDS011;6651;53.200;10.432;2023-03-01T10:50:17;10.07;;;7.07;;
13171;SDS011;6651;53.200;10.432;2023-03-01T10:52:44;11.10;;;7.57;;
13171;SDS011;6651;53.200;10.432;2023-03-01T10:55:34;12.10;;;8.00;;
13171;SDS011;6651;53.200;10.432;2023-03-01T11:00:33;10.35;;;7.47;;
13171;SDS011;6651;53.200;10.432;2023-03-01T11:05:25;10.65;;;7.88;;
13171;SDS011;6651;53.200;10.432;2023-03-01T11:07:54;9.65;;;7.18;;
13171;SDS011;6651;53.200;10.432;2023-03-01T11:10:59;9.73;;;7.82;;
13171;SDS011;6651;53.200;10.432;2023-03-01T11:13:15;11.38;;;7.97;;
13171;SDS011;6651;53.200;10.432;2023-03-01T11:15:42;11.70;;;8.60;;
13171;SDS011;6651;53.200;10.432;2023-03-01T11:18:21;12.60;;;8.27;;
13171;SDS011;6651;53.200;10.432;2023-03-01T11:20:48;10.98;;;8.27;;
13171;SDS011;6651;53.200;10.432;2023-03-01T11:23:14;10.30;;;8.13;;
13171;SDS011;6651;53.200;10.432;2023-03-01T11:26:00;11.85;;;8.60;;
13171;SDS011;6651;53.200;10.432;2023-03-01T11:28:27;8.50;;;7.47;;
13171;SDS011;6651;53.200;10.432;2023-03-01T11:31:02;11.80;;;8.82;;
13171;SDS011;6651;53.200;10.432;2023-03-01T11:33:46;12.02;;;9.40;;
13171;SDS011;6651;53.200;10.432;2023-03-01T11:38:45;10.85;;;8.68;;
13171;SDS011;6651;53.200;10.432;2023-03-01T11:41:21;10.93;;;8.70;;
13171;SDS011;6651;53.200;10.432;2023-03-01T11:46:29;10.02;;;8.40;;
13171;SDS011;6651;53.200;10.432;2023-03-01T11:56:45;10.88;;;8.77;;
13171;SDS011;6651;53.200;10.432;2023-03-01T11:59:17;11.05;;;8.80;;
13171;SDS011;6651;53.200;10.432;2023-03-01T12:02:50;9.43;;;7.95;;
13171;SDS011;6651;53.200;10.432;2023-03-01T12:20:33;8.65;;;7.75;;
13171;SDS011;6651;53.200;10.432;2023-03-01T12:33:22;9.45;;;7.82;;
13171;SDS011;6651;53.200;10.432;2023-03-01T12:51:03;10.90;;;8.68;;
13171;SDS011;6651;53.200;10.432;2023-03-01T12:53:31;12.02;;;9.27;;
13171;SDS011;6651;53.200;10.432;2023-03-01T12:56:10;10.82;;;8.68;;
13171;SDS011;6651;53.200;10.432;2023-03-01T12:58:40;10.05;;;8.35;;
13171;SDS011;6651;53.200;10.432;2023-03-01T13:01:20;11.23;;;8.27;;
13171;SDS011;6651;53.200;10.432;2023-03-01T13:04:07;10.30;;;8.32;;
13171;SDS011;6651;53.200;10.432;2023-03-01T13:09:29;10.65;;;8.48;;
13171;SDS011;6651;53.200;10.432;2023-03-01T13:11:56;10.38;;;8.65;;
13171;SDS011;6651;53.200;10.432;2023-03-01T13:16:49;10.30;;;8.38;;
13171;SDS011;6651;53.200;10.432;2023-03-01T13:19:19;10.18;;;8.43;;
13171;SDS011;6651;53.200;10.432;2023-03-01T13:21:46;11.68;;;9.18;;
13171;SDS011;6651;53.200;10.432;2023-03-01T13:29:49;11.85;;;8.18;;
13171;SDS011;6651;53.200;10.432;2023-03-01T13:32:28;9.15;;;7.85;;
13171;SDS011;6651;53.200;10.432;2023-03-01T13:37:24;10.35;;;8.07;;
13171;SDS011;6651;53.200;10.432;2023-03-01T13:39:55;11.10;;;8.75;;
13171;SDS011;6651;53.200;10.432;2023-03-01T13:44:57;10.30;;;8.52;;
13171;SDS011;6651;53.200;10.432;2023-03-01T13:47:24;12.23;;;9.18;;
13171;SDS011;6651;53.200;10.432;2023-03-01T13:49:57;11.90;;;8.60;;
13171;SDS011;6651;53.200;10.432;2023-03-01T13:52:32;10.82;;;8.13;;
13171;SDS011;6651;53.200;10.432;2023-03-01T13:55:00;10.82;;;9.32;;
13171;SDS011;6651;53.200;10.432;2023-03-01T13:57:30;11.07;;;9.18;;
13171;SDS011;6651;53.200;10.432;2023-03-01T13:59:58;10.48;;;8.45;;
13171;SDS011;6651;53.200;10.432;2023-03-01T14:02:24;10.13;;;8.02;;
13171;SDS011;6651;53.200;10.432;2023-03-01T14:05:00;9.85;;;8.45;;
13171;SDS011;6651;53.200;10.432;2023-03-01T14:07:27;11.85;;;9.20;;
13171;SDS011;6651;53.200;10.432;2023-03-01T14:10:00;9.43;;;8.30;;
13171;SDS011;6651;53.200;10.432;2023-03-01T14:12:31;10.82;;;8.15;;
13171;SDS011;6651;53.200;10.432;2023-03-01T14:17:34;10.65;;;8.43;;
13171;SDS011;6651;53.200;10.432;2023-03-01T14:22:42;11.38;;;8.95;;
13171;SDS011;6651;53.200;10.432;2023-03-01T14:25:22;9.50;;;8.23;;
13171;SDS011;6651;53.200;10.432;2023-03-01T14:27:55;11.18;;;8.98;;
13171;SDS011;6651;53.200;10.432;2023-03-01T14:30:23;11.77;;;8.65;;
13171;SDS011;6651;53.200;10.432;2023-03-01T14:32:54;10.63;;;9.02;;
13171;SDS011;6651;53.200;10.432;2023-03-01T14:35:38;10.52;;;8.48;;
13171;SDS011;6651;53.200;10.432;2023-03-01T14:38:04;10.77;;;9.25;;
13171;SDS011;6651;53.200;10.432;2023-03-01T14:40:32;12.95;;;10.00;;
13171;SDS011;6651;53.200;10.432;2023-03-01T14:42:59;12.48;;;9.02;;
13171;SDS011;6651;53.200;10.432;2023-03-01T14:45:26;13.07;;;10.43;;
13171;SDS011;6651;53.200;10.432;2023-03-01T14:47:53;12.35;;;10.05;;
13171;SDS011;6651;53.200;10.432;2023-03-01T14:50:27;9.80;;;8.18;;
13171;SDS011;6651;53.200;10.432;2023-03-01T14:52:54;11.25;;;8.80;;
13171;SDS011;6651;53.200;10.432;2023-03-01T14:57:53;9.68;;;7.78;;
13171;SDS011;6651;53.200;10.432;2023-03-01T15:00:23;10.50;;;7.90;;
13171;SDS011;6651;53.200;10.432;2023-03-01T15:02:50;8.73;;;7.47;;
13171;SDS011;6651;53.200;10.432;2023-03-01T15:05:18;10.38;;;7.85;;
13171;SDS011;6651;53.200;10.432;2023-03-01T15:07:47;9.43;;;8.13;;
13171;SDS011;6651;53.200;10.432;2023-03-01T15:10:24;8.80;;;7.75;;
13171;SDS011;6651;53.200;10.432;2023-03-01T15:12:51;10.45;;;7.82;;
13171;SDS011;6651;53.200;10.432;2023-03-01T15:18:12;9.70;;;7.63;;
13171;SDS011;6651;53.200;10.432;2023-03-01T15:20:39;10.25;;;7.90;;
13171;SDS011;6651;53.200;10.432;2023-03-01T15:23:05;9.95;;;8.00;;
13171;SDS011;6651;53.200;10.432;2023-03-01T15:25:32;10.50;;;8.30;;
13171;SDS011;6651;53.200;10.432;2023-03-01T15:27:59;10.15;;;8.60;;
13171;SDS011;6651;53.200;10.432;2023-03-01T15:30:27;9.88;;;7.78;;
13171;SDS011;6651;53.200;10.432;2023-03-01T15:35:44;10.68;;;8.88;;
13171;SDS011;6651;53.200;10.432;2023-03-01T15:40:59;9.68;;;8.10;;
13171;SDS011;6651;53.200;10.432;2023-03-01T15:43:38;11.98;;;9.55;;
13171;SDS011;6651;53.200;10.432;2023-03-01T15:46:04;10.30;;;9.00;;
13171;SDS011;6651;53.200;10.432;2023-03-01T15:48:30;11.65;;;8.98;;
13171;SDS011;6651;53.200;10.432;2023-03-01T15:50:57;11.20;;;9.10;;
13171;SDS011;6651;53.200;10.432;2023-03-01T15:53:24;10.07;;;8.27;;
13171;SDS011;6651;53.200;10.432;2023-03-01T15:55:50;10.00;;;8.38;;
13171;SDS011;6651;53.200;10.432;2023-03-01T15:58:19;11.35;;;8.45;;
13171;SDS011;6651;53.200;10.432;2023-03-01T16:00:46;11.45;;;8.68;;
13171;SDS011;6651;53.200;10.432;2023-03-01T16:03:13;9.77;;;8.68;;
13171;SDS011;6651;53.200;10.432;2023-03-01T16:05:46;10.50;;;8.57;;
13171;SDS011;6651;53.200;10.432;2023-03-01T16:08:12;9.90;;;8.20;;
13171;SDS011;6651;53.200;10.432;2023-03-01T16:10:38;9.85;;;8.10;;
13171;SDS011;6651;53.200;10.432;2023-03-01T16:13:05;9.55;;;7.85;;
13171;SDS011;6651;53.200;10.432;2023-03-01T16:15:33;10.70;;;7.43;;
13171;SDS011;6651;53.200;10.432;2023-03-01T16:18:00;9.45;;;7.32;;
13171;SDS011;6651;53.200;10.432;2023-03-01T16:20:26;10.88;;;8.55;;
13171;SDS011;6651;53.200;10.432;2023-03-01T16:22:52;9.20;;;7.25;;
13171;SDS011;6651;53.200;10.432;2023-03-01T16:25:19;9.48;;;7.45;;
13171;SDS011;6651;53.200;10.432;2023-03-01T16:27:46;9.40;;;7.70;;
13171;SDS011;6651;53.200;10.432;2023-03-01T16:30:13;10.35;;;8.93;;
13171;SDS011;6651;53.200;10.432;2023-03-01T16:32:40;9.45;;;7.32;;
13171;SDS011;6651;53.200;10.432;2023-03-01T16:35:07;9.68;;;7.68;;
13171;SDS011;6651;53.200;10.432;2023-03-01T16:37:34;8.18;;;6.50;;
13171;SDS011;6651;53.200;10.432;2023-03-01T16:40:00;9.73;;;7.45;;
13171;SDS011;6651;53.200;10.432;2023-03-01T16:42:27;9.63;;;8.63;;
13171;SDS011;6651;53.200;10.432;2023-03-01T16:44:56;9.30;;;7.88;;
13171;SDS011;6651;53.200;10.432;2023-03-01T16:47:22;10.45;;;7.18;;
13171;SDS011;6651;53.200;10.432;2023-03-01T16:49:51;9.50;;;8.10;;
13171;SDS011;6651;53.200;10.432;2023-03-01T16:52:18;10.48;;;8.98;;
13171;SDS011;6651;53.200;10.432;2023-03-01T16:54:44;11.57;;;8.73;;
13171;SDS011;6651;53.200;10.432;2023-03-01T16:57:10;11.32;;;9.43;;